createdAt,value
2018-01-06T00:01:34.622Z,14.82
2018-01-06T00:04:03.546Z,11.35
2018-01-06T00:06:31.606Z,11.32
2018-01-06T00:08:59.672Z,12.95
2018-01-06T00:11:28.796Z,12.37
2018-01-06T00:13:56.832Z,11.80
2018-01-06T00:16:25.213Z,7.20
2018-01-06T00:18:53.336Z,9.00
2018-01-06T00:21:21.349Z,16.42
2018-01-06T00:23:49.437Z,10.68
2018-01-06T00:26:17.415Z,10.68
2018-01-06T00:28:45.736Z,10.93
2018-01-06T00:31:13.823Z,8.10
2018-01-06T00:33:41.848Z,9.82
2018-01-06T00:36:09.860Z,13.75
2018-01-06T00:38:37.891Z,13.00
2018-01-06T00:41:05.890Z,11.05
2018-01-06T00:43:33.946Z,14.70
2018-01-06T00:46:02.054Z,12.27
2018-01-06T00:48:30.069Z,10.75
2018-01-06T00:50:59.285Z,11.52
2018-01-06T00:53:27.458Z,12.30
2018-01-06T00:55:55.479Z,11.82
2018-01-06T00:58:24.865Z,13.88
2018-01-06T01:00:53.132Z,13.05
2018-01-06T01:03:21.324Z,13.75
2018-01-06T01:05:49.654Z,17.90
2018-01-06T01:08:17.765Z,11.40
2018-01-06T01:10:45.821Z,24.33
2018-01-06T01:13:13.987Z,13.25
2018-01-06T01:15:42.092Z,11.57
2018-01-06T01:18:11.140Z,9.40
2018-01-06T01:20:39.294Z,10.00
2018-01-06T01:23:07.349Z,13.13
2018-01-06T01:25:35.379Z,11.82
2018-01-06T01:28:03.352Z,11.00
2018-01-06T01:30:31.444Z,10.52
2018-01-06T01:32:59.475Z,11.70
2018-01-06T01:35:27.511Z,13.52
2018-01-06T01:37:55.553Z,14.27
2018-01-06T01:40:23.914Z,10.20
2018-01-06T01:42:52.032Z,15.23
2018-01-06T01:45:20.268Z,13.45
2018-01-06T01:47:48.410Z,14.45
2018-01-06T01:50:16.458Z,12.88
2018-01-06T01:52:44.522Z,11.38
2018-01-06T01:55:12.540Z,8.95
2018-01-06T01:57:40.592Z,11.50
2018-01-06T02:00:08.644Z,12.23
2018-01-06T02:02:36.690Z,11.73
2018-01-06T02:05:04.738Z,10.98
2018-01-06T02:07:32.820Z,15.60
2018-01-06T02:10:00.922Z,13.05
2018-01-06T02:12:29.001Z,13.35
2018-01-06T02:14:57.022Z,12.15
2018-01-06T02:17:25.068Z,15.40
2018-01-06T02:19:53.115Z,12.60
2018-01-06T02:22:21.157Z,15.15
2018-01-06T02:24:49.190Z,12.13
2018-01-06T02:27:17.205Z,11.07
2018-01-06T02:29:46.681Z,11.85
2018-01-06T02:32:14.781Z,16.73
2018-01-06T02:34:42.970Z,12.35
2018-01-06T02:37:11.042Z,13.02
2018-01-06T02:39:39.166Z,12.07
2018-01-06T02:42:07.239Z,17.58
2018-01-06T02:44:35.294Z,10.50
2018-01-06T02:47:03.313Z,12.75
2018-01-06T02:49:31.324Z,12.65
2018-01-06T02:51:59.357Z,16.23
2018-01-06T02:54:27.367Z,17.98
2018-01-06T02:56:55.398Z,10.85
2018-01-06T02:59:23.439Z,10.27
2018-01-06T03:01:51.431Z,13.13
2018-01-06T03:04:19.518Z,10.85
2018-01-06T03:06:47.868Z,11.07
2018-01-06T03:09:16.224Z,10.02
2018-01-06T03:11:44.299Z,10.90
2018-01-06T03:14:12.304Z,11.45
2018-01-06T03:16:40.504Z,11.63
2018-01-06T03:19:08.580Z,13.85
2018-01-06T03:21:36.608Z,10.32
2018-01-06T03:24:04.632Z,11.48
2018-01-06T03:26:32.616Z,16.20
2018-01-06T03:29:00.634Z,12.00
2018-01-06T03:31:28.698Z,12.20
2018-01-06T03:33:56.691Z,15.35
2018-01-06T03:36:24.724Z,13.60
2018-01-06T03:38:53.174Z,11.38
2018-01-06T03:41:21.330Z,13.05
2018-01-06T03:43:49.367Z,12.43
2018-01-06T03:46:17.462Z,12.60
2018-01-06T03:48:45.523Z,12.50
2018-01-06T03:51:13.708Z,12.60
2018-01-06T03:53:41.727Z,13.60
2018-01-06T03:56:09.871Z,11.82
2018-01-06T03:58:37.998Z,15.43
2018-01-06T04:01:06.033Z,13.77
2018-01-06T04:03:34.077Z,13.38
2018-01-06T04:06:02.316Z,8.77
2018-01-06T04:08:30.453Z,13.45
2018-01-06T04:10:58.476Z,11.32
2018-01-06T04:13:26.528Z,9.23
2018-01-06T04:15:54.508Z,10.30
2018-01-06T04:18:22.531Z,9.60
2018-01-06T04:20:50.846Z,13.65
2018-01-06T04:23:19.035Z,15.38
2018-01-06T04:25:47.056Z,12.70
2018-01-06T04:28:15.430Z,13.43
2018-01-06T04:30:43.690Z,9.88
2018-01-06T04:33:11.731Z,11.75
2018-01-06T04:35:39.777Z,13.30
2018-01-06T04:38:08.899Z,11.52
2018-01-06T04:40:36.966Z,12.25
2018-01-06T04:43:05.038Z,9.80
2018-01-06T04:45:33.070Z,10.15
2018-01-06T04:48:01.141Z,9.18
2018-01-06T04:50:29.180Z,9.50
2018-01-06T04:52:57.196Z,9.95
2018-01-06T04:55:25.188Z,13.45
2018-01-06T04:57:53.188Z,12.05
2018-01-06T05:00:21.241Z,14.57
2018-01-06T05:02:49.305Z,10.13
2018-01-06T05:05:17.384Z,18.45
2018-01-06T05:07:45.802Z,12.35
2018-01-06T05:10:14.073Z,9.40
2018-01-06T05:12:42.141Z,13.07
2018-01-06T05:15:10.354Z,13.50
2018-01-06T05:17:38.463Z,10.40
2018-01-06T05:20:06.688Z,10.45
2018-01-06T05:22:34.705Z,9.32
2018-01-06T05:25:02.754Z,10.52
2018-01-06T05:27:30.982Z,10.52
2018-01-06T05:29:59.040Z,20.52
2018-01-06T05:32:27.065Z,12.35
2018-01-06T05:34:55.108Z,12.40
2018-01-06T05:37:23.121Z,11.23
2018-01-06T05:39:51.123Z,15.30
2018-01-06T05:42:20.188Z,12.43
2018-01-06T05:44:48.205Z,10.18
2018-01-06T05:47:16.258Z,8.80
2018-01-06T05:49:44.326Z,11.00
2018-01-06T05:52:12.343Z,11.90
2018-01-06T05:54:40.365Z,9.57
2018-01-06T05:57:08.510Z,10.77
2018-01-06T05:59:36.586Z,14.65
2018-01-06T06:02:04.561Z,15.77
2018-01-06T06:04:32.605Z,9.68
2018-01-06T06:07:00.600Z,8.65
2018-01-06T06:09:29.746Z,7.47
2018-01-06T06:11:57.757Z,10.10
2018-01-06T06:14:25.782Z,9.70
2018-01-06T06:16:53.779Z,9.35
2018-01-06T06:19:21.819Z,8.50
2018-01-06T06:21:49.828Z,12.52
2018-01-06T06:24:17.822Z,9.70
2018-01-06T06:26:45.824Z,9.20
2018-01-06T06:29:13.833Z,11.63
2018-01-06T06:31:41.847Z,11.12
2018-01-06T06:34:10.982Z,10.43
2018-01-06T06:36:38.976Z,12.07
2018-01-06T06:39:06.989Z,10.60
2018-01-06T06:41:35.047Z,12.75
2018-01-06T06:44:03.089Z,11.75
2018-01-06T06:46:31.104Z,9.65
2018-01-06T06:48:59.176Z,10.40
2018-01-06T06:51:27.244Z,12.20
2018-01-06T06:53:55.281Z,13.20
2018-01-06T06:56:23.836Z,10.10
2018-01-06T06:58:51.841Z,10.18
2018-01-06T07:01:19.872Z,10.45
2018-01-06T07:03:47.892Z,11.27
2018-01-06T07:06:15.897Z,8.65
2018-01-06T07:08:43.913Z,17.55
2018-01-06T07:11:11.941Z,9.93
2018-01-06T07:13:39.992Z,10.85
2018-01-06T07:16:08.012Z,8.75
2018-01-06T07:18:36.055Z,15.75
2018-01-06T07:21:04.060Z,13.82
2018-01-06T07:23:32.056Z,8.77
2018-01-06T07:26:00.093Z,11.60
2018-01-06T07:28:28.132Z,10.23
2018-01-06T07:30:56.168Z,9.95
2018-01-06T07:33:24.189Z,12.10
2018-01-06T07:35:52.229Z,9.35
2018-01-06T07:38:20.245Z,15.07
2018-01-06T07:40:48.209Z,17.80
2018-01-06T07:43:16.230Z,16.52
2018-01-06T07:45:44.254Z,16.60
2018-01-06T07:48:12.254Z,12.05
2018-01-06T07:50:40.299Z,11.88
2018-01-06T07:53:08.331Z,12.40
2018-01-06T07:55:36.390Z,14.43
2018-01-06T07:58:04.415Z,13.05
2018-01-06T08:00:32.478Z,12.75
2018-01-06T08:03:00.532Z,15.48
2018-01-06T08:05:28.559Z,14.02
2018-01-06T08:07:56.628Z,13.35
2018-01-06T08:10:24.766Z,15.35
2018-01-06T08:12:52.819Z,12.30
2018-01-06T08:15:20.872Z,10.45
2018-01-06T08:17:49.345Z,15.70
2018-01-06T08:20:17.408Z,14.50
2018-01-06T08:22:45.418Z,13.98
2018-01-06T08:25:13.466Z,15.30
2018-01-06T08:27:41.617Z,17.40
2018-01-06T08:30:09.709Z,14.27
2018-01-06T08:32:37.951Z,13.98
2018-01-06T08:35:06.154Z,13.32
2018-01-06T08:37:34.217Z,12.60
2018-01-06T08:40:02.306Z,10.57
2018-01-06T08:42:30.516Z,16.80
2018-01-06T08:44:58.826Z,12.68
2018-01-06T08:47:27.039Z,12.18
2018-01-06T08:49:55.304Z,15.40
2018-01-06T08:52:24.341Z,11.60
2018-01-06T08:54:52.584Z,13.20
2018-01-06T08:57:20.577Z,14.73
2018-01-06T08:59:48.608Z,17.20
2018-01-06T09:02:16.628Z,16.67
2018-01-06T09:04:44.665Z,14.80
2018-01-06T09:07:12.731Z,13.18
2018-01-06T09:09:40.714Z,14.48
2018-01-06T09:12:08.639Z,15.93
2018-01-06T09:14:37.665Z,13.27
2018-01-06T09:17:05.698Z,12.55
2018-01-06T09:19:33.651Z,16.02
2018-01-06T09:22:01.604Z,13.30
2018-01-06T09:24:29.574Z,16.60
2018-01-06T09:26:57.522Z,15.55
2018-01-06T09:29:25.559Z,14.50
2018-01-06T09:31:53.619Z,12.45
2018-01-06T09:34:21.639Z,20.25
2018-01-06T09:36:49.752Z,17.83
2018-01-06T09:39:17.850Z,17.95
2018-01-06T09:41:45.892Z,25.10
2018-01-06T09:44:13.948Z,17.98
2018-01-06T09:46:41.984Z,16.62
2018-01-06T09:49:10.036Z,19.30
2018-01-06T09:51:38.059Z,20.30
2018-01-06T09:54:06.128Z,20.75
2018-01-06T09:56:34.169Z,22.40
2018-01-06T09:59:02.339Z,16.85
2018-01-06T10:01:30.452Z,26.92
2018-01-06T10:03:58.524Z,34.40
2018-01-06T10:06:26.592Z,22.73
2018-01-06T10:08:54.630Z,24.77
2018-01-06T10:11:22.687Z,29.17
2018-01-06T10:13:50.705Z,21.30
2018-01-06T10:16:18.735Z,22.42
2018-01-06T10:18:46.796Z,23.80
2018-01-06T10:21:14.818Z,19.20
2018-01-06T10:23:42.817Z,16.80
2018-01-06T10:26:11.501Z,21.55
2018-01-06T10:28:39.708Z,17.80
2018-01-06T10:31:07.762Z,20.52
2018-01-06T10:33:35.773Z,19.30
2018-01-06T10:36:03.787Z,23.83
2018-01-06T10:38:31.851Z,20.00
2018-01-06T10:40:59.897Z,20.70
2018-01-06T10:43:27.924Z,23.97
2018-01-06T10:45:55.974Z,23.00
2018-01-06T10:48:23.986Z,23.60
2018-01-06T10:50:52.039Z,20.20
2018-01-06T10:53:20.106Z,20.57
2018-01-06T10:55:48.128Z,20.53
2018-01-06T10:58:16.125Z,18.77
2018-01-06T11:00:50.122Z,23.10
2018-01-06T11:03:18.338Z,22.87
2018-01-06T11:05:46.406Z,24.70
2018-01-06T11:08:14.452Z,26.90
2018-01-06T11:10:42.532Z,22.60
2018-01-06T11:13:10.544Z,22.40
2018-01-06T11:15:38.573Z,20.13
2018-01-06T11:18:06.614Z,21.67
2018-01-06T11:20:35.726Z,24.37
2018-01-06T11:23:03.708Z,24.20
2018-01-06T11:25:31.727Z,24.00
2018-01-06T11:27:59.775Z,25.63
2018-01-06T11:30:27.858Z,21.40
2018-01-06T11:32:55.986Z,21.70
2018-01-06T11:35:24.016Z,25.20
2018-01-06T11:37:52.010Z,21.70
2018-01-06T11:40:20.005Z,24.47
2018-01-06T11:42:48.059Z,26.60
2018-01-06T11:45:16.105Z,26.10
2018-01-06T11:47:44.260Z,26.80
2018-01-06T11:50:12.391Z,24.50
2018-01-06T11:52:40.411Z,26.27
2018-01-06T11:55:08.428Z,29.00
2018-01-06T11:57:36.421Z,22.40
2018-01-06T12:00:04.509Z,26.97
2018-01-06T12:02:32.550Z,23.43
2018-01-06T12:05:00.596Z,29.30
2018-01-06T12:07:28.609Z,20.63
2018-01-06T12:09:56.633Z,27.97
2018-01-06T12:12:24.791Z,27.90
2018-01-06T12:14:52.919Z,27.97
2018-01-06T12:17:20.916Z,23.87
2018-01-06T12:19:48.946Z,21.53
2018-01-06T12:22:16.990Z,20.30
2018-01-06T12:24:45.013Z,29.10
2018-01-06T12:27:13.061Z,25.67
2018-01-06T12:29:41.194Z,25.07
2018-01-06T12:32:09.213Z,27.10
2018-01-06T12:34:37.330Z,26.90
2018-01-06T12:37:05.346Z,26.97
2018-01-06T12:39:33.433Z,25.30
2018-01-06T12:42:01.580Z,23.17
2018-01-06T12:44:29.749Z,23.27
2018-01-06T12:46:57.748Z,23.93
2018-01-06T12:49:25.814Z,23.07
2018-01-06T12:51:53.948Z,21.90
2018-01-06T12:54:22.090Z,24.57
2018-01-06T12:56:50.200Z,21.73
2018-01-06T12:59:18.247Z,23.37
2018-01-06T13:01:46.236Z,22.07
2018-01-06T13:04:14.243Z,21.70
2018-01-06T13:06:42.286Z,26.40
2018-01-06T13:09:10.356Z,21.57
2018-01-06T13:11:38.348Z,25.43
2018-01-06T13:14:06.386Z,23.03
2018-01-06T13:16:34.485Z,24.00
2018-01-06T13:19:02.549Z,21.83
2018-01-06T13:21:30.520Z,24.10
2018-01-06T13:23:58.563Z,22.40
2018-01-06T13:26:26.625Z,22.13
2018-01-06T13:28:54.607Z,21.63
2018-01-06T13:31:22.958Z,22.50
2018-01-06T13:33:51.065Z,22.00
2018-01-06T13:36:19.088Z,21.53
2018-01-06T13:38:47.178Z,20.00
2018-01-06T13:41:15.254Z,19.77
2018-01-06T13:43:43.306Z,19.87
2018-01-06T13:46:11.365Z,17.90
2018-01-06T13:48:39.438Z,18.93
2018-01-06T13:51:07.483Z,19.60
2018-01-06T13:53:35.511Z,20.77
2018-01-06T13:56:03.512Z,18.10
2018-01-06T13:58:31.572Z,23.07
2018-01-06T14:00:59.670Z,17.10
2018-01-06T14:03:27.843Z,18.23
2018-01-06T14:05:55.989Z,20.63
2018-01-06T14:08:24.036Z,17.23
2018-01-06T14:10:52.199Z,17.63
2018-01-06T14:13:20.386Z,17.70
2018-01-06T14:15:48.492Z,18.10
2018-01-06T14:18:17.670Z,15.33
2018-01-06T14:20:45.675Z,15.57
2018-01-06T14:23:13.696Z,17.67
2018-01-06T14:25:41.765Z,15.55
2018-01-06T14:28:10.070Z,12.50
2018-01-06T14:30:38.489Z,16.00
2018-01-06T14:33:06.619Z,15.70
2018-01-06T14:35:34.662Z,18.30
2018-01-06T14:38:02.713Z,18.02
2018-01-06T14:40:30.822Z,15.97
2018-01-06T14:42:58.914Z,20.90
2018-01-06T14:45:26.953Z,13.87
2018-01-06T14:47:55.083Z,20.03
2018-01-06T14:50:23.139Z,15.73
2018-01-06T14:52:51.152Z,12.50
2018-01-06T14:55:19.162Z,17.50
2018-01-06T14:57:47.184Z,16.08
2018-01-06T15:00:15.236Z,16.30
2018-01-06T15:02:43.319Z,15.50
2018-01-06T15:05:11.411Z,18.17
2018-01-06T15:07:39.404Z,18.47
2018-01-06T15:10:07.432Z,18.07
2018-01-06T15:12:36.539Z,20.60
2018-01-06T15:15:04.572Z,16.40
2018-01-06T15:17:32.584Z,17.97
2018-01-06T15:20:00.689Z,17.25
2018-01-06T15:22:28.701Z,22.27
2018-01-06T15:24:56.762Z,14.33
2018-01-06T15:27:24.891Z,19.73
2018-01-06T15:29:52.900Z,16.20
2018-01-06T15:32:20.968Z,20.60
2018-01-06T15:34:48.980Z,17.23
2018-01-06T15:37:17.018Z,17.87
2018-01-06T15:39:45.029Z,16.87
2018-01-06T15:42:13.099Z,15.50
2018-01-06T15:44:41.182Z,18.83
2018-01-06T15:47:09.221Z,17.17
2018-01-06T15:49:37.229Z,19.57
2018-01-06T15:52:05.220Z,21.30
2018-01-06T15:54:33.193Z,17.40
2018-01-06T15:57:01.308Z,20.05
2018-01-06T15:59:29.374Z,19.15
2018-01-06T16:01:57.423Z,17.23
2018-01-06T16:04:25.527Z,17.98
2018-01-06T16:06:53.565Z,21.70
2018-01-06T16:09:21.604Z,16.83
2018-01-06T16:11:49.626Z,15.40
2018-01-06T16:14:17.674Z,18.60
2018-01-06T16:16:45.717Z,15.52
2018-01-06T16:19:13.794Z,13.75
2018-01-06T16:21:41.861Z,12.77
2018-01-06T16:24:09.904Z,6.95
2018-01-06T16:26:37.940Z,4.72
2018-01-06T16:29:05.940Z,3.67
2018-01-06T16:31:34.014Z,5.55
2018-01-06T16:34:02.155Z,4.05
2018-01-06T16:36:30.211Z,3.87
2018-01-06T16:38:58.330Z,3.80
2018-01-06T16:41:26.383Z,4.00
2018-01-06T16:43:54.420Z,4.37
2018-01-06T16:46:23.462Z,2.78
2018-01-06T16:48:51.493Z,6.40
2018-01-06T16:51:19.617Z,2.95
2018-01-06T16:53:47.613Z,5.07
2018-01-06T16:56:15.609Z,5.57
2018-01-06T16:58:43.611Z,3.87
2018-01-06T17:01:11.659Z,2.05
2018-01-06T17:03:39.669Z,3.72
2018-01-06T17:06:07.711Z,3.60
2018-01-06T17:08:35.743Z,3.17
2018-01-06T17:11:03.770Z,7.62
2018-01-06T17:13:31.837Z,2.42
2018-01-06T17:15:59.881Z,3.80
2018-01-06T17:18:27.939Z,2.67
2018-01-06T17:20:55.964Z,1.60
2018-01-06T17:23:23.999Z,1.95
2018-01-06T17:25:52.023Z,1.60
2018-01-06T17:28:20.134Z,1.40
2018-01-06T17:30:48.250Z,2.67
2018-01-06T17:33:16.281Z,3.30
2018-01-06T17:35:44.304Z,2.05
2018-01-06T17:38:12.974Z,3.30
2018-01-06T17:40:41.063Z,1.35
2018-01-06T17:43:09.092Z,1.23
2018-01-06T17:45:37.155Z,4.87
2018-01-06T17:48:05.216Z,2.53
2018-01-06T17:50:33.230Z,4.57
2018-01-06T17:53:01.338Z,3.70
2018-01-06T17:55:29.425Z,4.03
2018-01-06T17:57:57.416Z,3.05
2018-01-06T18:00:25.641Z,8.55
2018-01-06T18:02:53.674Z,1.98
2018-01-06T18:05:21.670Z,2.45
2018-01-06T18:07:49.745Z,2.25
2018-01-06T18:10:18.807Z,4.03
2018-01-06T18:12:47.040Z,2.25
2018-01-06T18:15:15.054Z,2.20
2018-01-06T18:17:43.063Z,5.18
2018-01-06T18:20:11.196Z,4.82
2018-01-06T18:22:39.304Z,4.10
2018-01-06T18:25:07.328Z,4.20
2018-01-06T18:27:35.377Z,3.20
2018-01-06T18:30:03.425Z,1.45
2018-01-06T18:32:31.468Z,2.47
2018-01-06T18:34:59.553Z,3.30
2018-01-06T18:37:27.592Z,1.92
2018-01-06T18:39:55.632Z,3.78
2018-01-06T18:42:23.664Z,3.10
2018-01-06T18:44:51.688Z,2.00
2018-01-06T18:47:19.783Z,1.87
2018-01-06T18:49:47.882Z,2.70
2018-01-06T18:52:15.893Z,2.25
2018-01-06T18:54:43.883Z,2.00
2018-01-06T18:57:11.934Z,4.03
2018-01-06T18:59:40.221Z,5.65
2018-01-06T19:02:08.306Z,3.03
2018-01-06T19:04:36.359Z,3.37
2018-01-06T19:07:04.634Z,2.60
2018-01-06T19:09:33.348Z,4.00
2018-01-06T19:12:01.645Z,1.35
2018-01-06T19:14:29.716Z,2.67
2018-01-06T19:16:57.806Z,2.97
2018-01-06T19:19:25.822Z,4.93
2018-01-06T19:21:53.881Z,1.98
2018-01-06T19:24:21.927Z,5.05
2018-01-06T19:26:50.134Z,1.67
2018-01-06T19:29:18.178Z,2.58
2018-01-06T19:31:46.252Z,4.65
2018-01-06T19:34:14.309Z,3.20
2018-01-06T19:36:43.417Z,2.80
2018-01-06T19:39:11.618Z,2.97
2018-01-06T19:41:39.874Z,3.03
2018-01-06T19:44:08.070Z,3.53
2018-01-06T19:46:36.166Z,1.10
2018-01-06T19:49:04.140Z,5.03
2018-01-06T19:51:32.166Z,2.87
2018-01-06T19:54:00.300Z,1.45
2018-01-06T19:56:28.466Z,7.62
2018-01-06T19:58:56.572Z,1.50
2018-01-06T20:01:24.675Z,2.80
2018-01-06T20:03:53.079Z,3.25
2018-01-06T20:06:21.142Z,2.65
2018-01-06T20:08:49.175Z,2.65
2018-01-06T20:11:18.430Z,4.55
2018-01-06T20:13:46.586Z,2.72
2018-01-06T20:16:14.614Z,2.08
2018-01-06T20:18:42.729Z,1.17
2018-01-06T20:21:10.769Z,1.58
2018-01-06T20:23:38.856Z,2.12
2018-01-06T20:26:07.933Z,5.03
2018-01-06T20:28:35.967Z,1.60
2018-01-06T20:31:04.041Z,3.33
2018-01-06T20:33:32.143Z,4.03
2018-01-06T20:36:00.405Z,2.40
2018-01-06T20:38:28.477Z,1.05
2018-01-06T20:40:56.499Z,1.25
2018-01-06T20:43:24.597Z,1.25
2018-01-06T20:45:52.638Z,1.33
2018-01-06T20:48:20.841Z,3.25
2018-01-06T20:50:48.851Z,2.53
2018-01-06T20:53:16.857Z,3.95
2018-01-06T20:55:45.952Z,2.17
2018-01-06T20:58:14.012Z,4.00
2018-01-06T21:00:43.033Z,1.23
2018-01-06T21:03:11.152Z,1.30
2018-01-06T21:05:39.296Z,1.90
2018-01-06T21:08:07.312Z,1.25
2018-01-06T21:10:35.375Z,1.90
2018-01-06T21:13:03.386Z,3.30
2018-01-06T21:15:31.417Z,2.85
2018-01-06T21:18:00.444Z,2.83
2018-01-06T21:20:28.492Z,1.50
2018-01-06T21:22:56.510Z,1.60
2018-01-06T21:25:24.602Z,2.50
2018-01-06T21:27:52.689Z,4.32
2018-01-06T21:30:20.737Z,2.00
2018-01-06T21:32:48.747Z,2.75
2018-01-06T21:35:16.764Z,3.55
2018-01-06T21:37:44.814Z,6.05
2018-01-06T21:40:12.874Z,3.45
2018-01-06T21:42:40.989Z,2.70
2018-01-06T21:45:09.058Z,2.15
2018-01-06T21:47:37.416Z,3.58
2018-01-06T21:50:05.535Z,4.15
2018-01-06T21:52:33.613Z,6.05
2018-01-06T21:55:01.644Z,3.42
2018-01-06T21:57:29.794Z,5.55
2018-01-06T21:59:57.801Z,2.58
2018-01-06T22:02:25.858Z,3.15
2018-01-06T22:04:53.917Z,3.35
2018-01-06T22:07:21.952Z,10.35
2018-01-06T22:09:50.472Z,8.75
2018-01-06T22:12:18.851Z,2.92
2018-01-06T22:14:46.904Z,2.10
2018-01-06T22:17:14.920Z,2.22
2018-01-06T22:19:42.941Z,2.20
2018-01-06T22:22:10.949Z,3.22
2018-01-06T22:24:38.960Z,2.03
2018-01-06T22:27:07.025Z,2.10
2018-01-06T22:29:35.066Z,2.42
2018-01-06T22:32:03.099Z,2.42
2018-01-06T22:34:31.152Z,1.58
2018-01-06T22:36:59.195Z,1.90
2018-01-06T22:39:27.247Z,2.40
2018-01-06T22:41:55.555Z,1.30
2018-01-06T22:44:23.618Z,3.15
2018-01-06T22:46:51.660Z,1.35
2018-01-06T22:49:19.699Z,0.73
2018-01-06T22:51:47.724Z,2.58
2018-01-06T22:54:15.781Z,2.97
2018-01-06T22:56:43.815Z,1.33
2018-01-06T22:59:11.864Z,1.05
2018-01-06T23:01:39.998Z,0.80
2018-01-06T23:04:08.297Z,1.73
2018-01-06T23:06:36.353Z,2.80
2018-01-06T23:09:05.043Z,1.83
2018-01-06T23:11:33.071Z,0.80
2018-01-06T23:14:01.093Z,2.67
2018-01-06T23:16:29.139Z,0.95
2018-01-06T23:18:57.186Z,3.17
2018-01-06T23:21:25.256Z,0.70
2018-01-06T23:23:53.289Z,2.95
2018-01-06T23:26:21.323Z,2.00
2018-01-06T23:28:49.367Z,0.70
2018-01-06T23:31:17.386Z,0.70
2018-01-06T23:33:45.380Z,2.20
2018-01-06T23:36:13.458Z,0.98
2018-01-06T23:38:41.503Z,1.33
2018-01-06T23:41:09.513Z,1.40
2018-01-06T23:43:37.552Z,1.85
2018-01-06T23:46:06.595Z,1.02
2018-01-06T23:48:34.628Z,0.88
2018-01-06T23:51:02.636Z,1.65
2018-01-06T23:53:30.642Z,1.25
2018-01-06T23:55:58.686Z,0.80
2018-01-06T23:58:26.703Z,1.70
